Time;durP1;ratioP1;P1;durP2;ratioP2;P2;SDS_P1;SDS_P2;PMS_P1;PMS_P2;Temp;Humidity;BMP_temperature;BMP_pressure;BME280_temperature;BME280_humidity;BME280_pressure;Samples;Min_cycle;Max_cycle;Signal;HPM_P1;HPM_P2
2022/01/07 00:00:16;;;;;;;52.33;47.00;;;18.10;55.30;;;;;;5007763;27;89292;-77
2022/01/07 00:02:46;;;;;;;52.47;47.17;;;18.10;55.10;;;;;;5004885;27;89568;-76
2022/01/07 00:05:12;;;;;;;52.38;47.08;;;18.00;55.30;;;;;;5006288;27;89506;-77
2022/01/07 00:07:39;;;;;;;51.83;46.70;;;18.00;54.90;;;;;;4982006;27;90666;-77
2022/01/07 00:10:08;;;;;;;52.45;47.05;;;18.00;55.20;;;;;;4970178;27;92423;-77
2022/01/07 00:12:33;;;;;;;52.35;46.95;;;18.00;55.20;;;;;;4984104;27;90241;-76
2022/01/07 00:14:59;;;;;;;52.53;47.13;;;18.00;55.20;;;;;;5001940;27;89651;-76
2022/01/07 00:17:25;;;;;;;52.20;47.00;;;18.00;55.20;;;;;;4993695;27;89705;-76
2022/01/07 00:19:51;;;;;;;51.90;46.72;;;17.90;55.20;;;;;;4991365;27;91045;-77
2022/01/07 00:22:16;;;;;;;52.15;46.90;;;17.90;55.20;;;;;;5008921;27;89945;-77
2022/01/07 00:24:42;;;;;;;51.85;46.65;;;17.90;55.20;;;;;;5015634;27;89515;-77
2022/01/07 00:27:08;;;;;;;52.95;47.25;;;17.90;55.00;;;;;;5018630;27;88241;-77
2022/01/07 00:29:34;;;;;;;52.28;46.97;;;17.90;55.00;;;;;;5012897;27;89965;-76
2022/01/07 00:32:00;;;;;;;52.22;46.92;;;17.90;55.30;;;;;;5014577;27;90221;-77
2022/01/07 00:34:26;;;;;;;52.22;47.05;;;17.90;55.30;;;;;;5020097;27;91722;-77
2022/01/07 00:36:52;;;;;;;52.15;46.88;;;17.90;55.30;;;;;;5006205;27;89582;-76
2022/01/07 00:39:17;;;;;;;52.35;47.05;;;17.90;55.20;;;;;;5015920;27;89636;-77
2022/01/07 00:41:43;;;;;;;52.47;46.97;;;17.90;55.10;;;;;;5010584;27;89716;-77
2022/01/07 00:44:09;;;;;;;52.10;46.83;;;17.90;55.20;;;;;;4992512;27;95497;-76
2022/01/07 00:46:34;;;;;;;52.15;46.85;;;17.90;55.10;;;;;;5011689;27;89958;-76
2022/01/07 00:49:00;;;;;;;52.35;47.05;;;17.90;54.80;;;;;;5018902;27;90333;-77
2022/01/07 00:51:26;;;;;;;51.90;46.60;;;17.80;54.90;;;;;;5018061;27;88502;-77
2022/01/07 00:53:51;;;;;;;52.30;47.10;;;17.80;55.00;;;;;;5019371;27;89233;-77
2022/01/07 00:56:17;;;;;;;51.67;46.55;;;17.80;55.10;;;;;;5013321;27;90756;-76
2022/01/07 00:58:42;;;;;;;51.80;46.55;;;17.80;55.00;;;;;;5013193;27;91564;-76
2022/01/07 01:01:08;;;;;;;51.85;46.63;;;17.80;55.30;;;;;;5005683;27;90847;-76
2022/01/07 01:03:34;;;;;;;52.00;46.70;;;17.80;55.20;;;;;;5009749;27;94021;-76
2022/01/07 01:06:00;;;;;;;52.17;46.88;;;17.80;55.30;;;;;;5009069;27;89555;-76
2022/01/07 01:08:38;;;;;;;51.25;46.15;;;17.80;55.00;;;;;;1693907;27;10110808;-77
2022/01/07 01:11:04;;;;;;;52.10;46.90;;;17.80;55.00;;;;;;3964680;27;10090075;-77
2022/01/07 01:13:31;;;;;;;51.90;46.65;;;17.70;54.90;;;;;;4993805;27;89047;-76
2022/01/07 01:15:57;;;;;;;51.70;46.50;;;17.70;55.20;;;;;;5006522;27;89136;-76
2022/01/07 01:18:23;;;;;;;51.95;46.75;;;17.70;55.10;;;;;;4998020;27;92374;-76
2022/01/07 01:20:49;;;;;;;52.15;46.95;;;17.70;55.10;;;;;;4994935;27;91536;-76
2022/01/07 01:23:14;;;;;;;51.42;46.35;;;17.70;55.20;;;;;;5007605;27;90909;-77
2022/01/07 01:25:40;;;;;;;52.00;46.70;;;17.70;55.20;;;;;;5013158;27;89607;-76
2022/01/07 01:28:06;;;;;;;52.08;46.78;;;17.60;55.10;;;;;;5004946;27;89475;-76
2022/01/07 01:30:33;;;;;;;51.78;46.63;;;17.60;55.10;;;;;;5007528;27;89574;-77
2022/01/07 01:32:59;;;;;;;51.28;46.20;;;17.60;55.00;;;;;;5022390;27;90592;-76
2022/01/07 01:35:25;;;;;;;51.58;46.38;;;17.60;55.10;;;;;;5019840;27;90441;-76
2022/01/07 01:37:51;;;;;;;51.97;46.85;;;17.60;55.20;;;;;;5006448;27;89857;-76
2022/01/07 01:40:18;;;;;;;51.85;46.65;;;17.60;55.10;;;;;;5019197;27;89382;-76
2022/01/07 01:42:44;;;;;;;51.85;46.65;;;17.60;55.10;;;;;;5016560;27;89613;-76
2022/01/07 01:45:11;;;;;;;52.00;46.83;;;17.60;55.10;;;;;;5013833;27;89885;-77
2022/01/07 01:47:37;;;;;;;51.72;46.50;;;17.60;55.10;;;;;;5003219;27;91485;-77
2022/01/07 01:50:05;;;;;;;51.53;46.42;;;17.60;55.20;;;;;;4999638;27;90137;-76
2022/01/07 01:52:30;;;;;;;51.40;46.35;;;17.60;55.20;;;;;;5018200;27;88895;-76
2022/01/07 01:54:56;;;;;;;51.67;46.58;;;17.60;55.30;;;;;;5022733;27;90872;-76
2022/01/07 01:57:22;;;;;;;51.22;46.15;;;17.50;55.30;;;;;;5003909;27;91792;-76
2022/01/07 01:59:48;;;;;;;51.65;46.45;;;17.50;55.10;;;;;;5008826;27;89776;-76
2022/01/07 02:02:14;;;;;;;51.20;46.20;;;17.50;55.10;;;;;;5023847;27;89996;-76
2022/01/07 02:04:40;;;;;;;51.63;46.42;;;17.50;55.10;;;;;;5019423;27;88867;-76
2022/01/07 02:07:08;;;;;;;51.97;46.75;;;17.40;55.20;;;;;;5021292;27;91055;-76
2022/01/07 02:09:35;;;;;;;51.63;46.53;;;17.40;55.40;;;;;;5012305;27;89455;-76
2022/01/07 02:12:10;;;;;;;51.60;46.45;;;17.50;55.30;;;;;;5003257;27;95072;-76
2022/01/07 02:14:36;;;;;;;51.53;46.42;;;17.40;55.10;;;;;;5016977;27;90812;-76
2022/01/07 02:17:07;;;;;;;52.05;46.65;;;17.40;55.20;;;;;;5011052;27;90431;-76
2022/01/07 02:19:35;;;;;;;51.38;46.33;;;17.30;55.40;;;;;;5013410;27;89043;-76
2022/01/07 02:22:01;;;;;;;51.35;46.22;;;17.40;55.40;;;;;;5018427;27;90112;-76
2022/01/07 02:24:26;;;;;;;51.30;46.20;;;17.30;55.10;;;;;;5017609;27;90186;-76
2022/01/07 02:26:52;;;;;;;51.25;46.25;;;17.30;55.20;;;;;;4994934;27;91374;-76
2022/01/07 02:29:18;;;;;;;51.25;46.17;;;17.40;55.30;;;;;;4989590;27;94177;-76
2022/01/07 02:31:44;;;;;;;51.70;46.50;;;17.40;55.30;;;;;;5009560;27;89082;-76
2022/01/07 02:34:09;;;;;;;51.35;46.25;;;17.40;55.20;;;;;;5010073;27;89321;-76
2022/01/07 02:36:35;;;;;;;51.85;46.75;;;17.40;54.90;;;;;;5006231;27;92682;-76
2022/01/07 02:39:00;;;;;;;51.65;46.45;;;17.30;55.20;;;;;;5011327;27;89199;-76
2022/01/07 02:41:26;;;;;;;51.20;46.03;;;17.30;55.30;;;;;;5008484;27;89633;-76
2022/01/07 02:43:52;;;;;;;51.15;46.15;;;17.30;55.20;;;;;;5002985;27;90010;-76
2022/01/07 02:46:18;;;;;;;51.35;46.25;;;17.30;55.40;;;;;;5012756;27;89190;-76
2022/01/07 02:48:44;;;;;;;51.38;46.28;;;17.30;55.20;;;;;;5015404;27;90591;-76
2022/01/07 02:51:09;;;;;;;51.10;46.05;;;17.30;55.20;;;;;;5006786;27;90087;-76
2022/01/07 02:53:35;;;;;;;51.65;46.35;;;17.30;55.10;;;;;;5011529;27;88918;-76
2022/01/07 02:56:01;;;;;;;51.35;46.17;;;17.30;55.10;;;;;;5009676;27;89607;-76
2022/01/07 02:58:26;;;;;;;51.58;46.35;;;17.30;55.10;;;;;;5006376;27;90619;-76
2022/01/07 03:00:52;;;;;;;51.08;46.05;;;17.30;55.50;;;;;;5009338;27;89694;-76
2022/01/07 03:03:18;;;;;;;51.28;46.28;;;17.30;55.90;;;;;;5004988;27;90831;-76
2022/01/07 03:05:43;;;;;;;51.45;46.35;;;17.30;55.10;;;;;;5013495;27;89649;-76
2022/01/07 03:08:10;;;;;;;51.22;46.20;;;17.30;55.10;;;;;;5018248;27;89908;-76
2022/01/07 03:10:36;;;;;;;51.13;46.13;;;17.30;54.90;;;;;;5002738;27;90245;-76
2022/01/07 03:13:03;;;;;;;51.45;46.40;;;17.30;55.20;;;;;;5000504;27;91066;-76
2022/01/07 03:15:31;;;;;;;51.55;46.25;;;17.20;55.10;;;;;;5014130;27;89019;-76
2022/01/07 03:17:56;;;;;;;51.25;46.20;;;17.30;55.20;;;;;;5009912;27;88630;-76
2022/01/07 03:20:23;;;;;;;51.38;46.33;;;17.30;55.30;;;;;;5005686;27;89490;-76
2022/01/07 03:22:49;;;;;;;51.03;45.95;;;17.20;55.20;;;;;;5010139;27;89184;-76
2022/01/07 03:25:16;;;;;;;51.38;46.28;;;17.20;55.20;;;;;;5009715;27;90824;-76
2022/01/07 03:27:42;;;;;;;51.50;46.38;;;17.30;55.20;;;;;;5007658;27;95134;-76
2022/01/07 03:30:11;;;;;;;51.40;46.30;;;17.20;54.90;;;;;;5015648;27;90324;-76
2022/01/07 03:32:37;;;;;;;51.10;45.95;;;17.30;55.10;;;;;;5012082;27;92427;-76
2022/01/07 03:35:04;;;;;;;51.15;45.95;;;17.30;55.00;;;;;;4993929;27;92344;-76
2022/01/07 03:37:30;;;;;;;51.35;46.28;;;17.30;55.10;;;;;;5009064;27;90239;-76
2022/01/07 03:39:56;;;;;;;51.15;46.15;;;17.30;54.80;;;;;;5015446;27;89644;-76
2022/01/07 03:42:21;;;;;;;51.00;45.90;;;17.30;55.10;;;;;;4990665;28;89094;-76
2022/01/07 03:44:47;;;;;;;51.67;46.53;;;17.30;54.90;;;;;;5003875;27;90797;-76
2022/01/07 03:47:13;;;;;;;51.50;46.28;;;17.30;55.10;;;;;;5017155;27;92720;-78
2022/01/07 03:49:38;;;;;;;51.35;46.25;;;17.30;55.10;;;;;;4995284;27;90923;-76
2022/01/07 03:52:04;;;;;;;51.42;46.22;;;17.30;55.00;;;;;;5004234;27;92349;-76
2022/01/07 03:54:30;;;;;;;51.35;46.25;;;17.30;55.00;;;;;;4992466;27;90200;-76
2022/01/07 03:56:56;;;;;;;50.92;45.92;;;17.30;55.00;;;;;;5003876;27;89194;-76
2022/01/07 03:59:21;;;;;;;51.30;46.22;;;17.20;54.90;;;;;;5009040;27;89558;-76
2022/01/07 04:01:47;;;;;;;51.40;46.28;;;17.20;55.10;;;;;;5004132;27;89715;-76
2022/01/07 04:04:13;;;;;;;51.33;46.25;;;17.20;55.20;;;;;;5009276;27;94622;-76
2022/01/07 04:06:38;;;;;;;50.97;45.95;;;17.30;55.30;;;;;;5001085;27;89394;-76
2022/01/07 04:09:04;;;;;;;51.20;46.13;;;17.20;55.10;;;;;;5003214;27;91736;-76
2022/01/07 04:11:30;;;;;;;50.95;45.95;;;17.20;55.10;;;;;;5010827;27;89226;-75
2022/01/07 04:13:55;;;;;;;51.00;45.92;;;17.20;55.20;;;;;;4988312;27;95335;-76
2022/01/07 04:16:21;;;;;;;51.10;46.00;;;17.20;55.30;;;;;;4999191;27;90228;-76
2022/01/07 04:18:46;;;;;;;50.90;45.90;;;17.10;55.10;;;;;;4985176;27;91395;-76
2022/01/07 04:21:12;;;;;;;51.17;46.08;;;17.10;55.30;;;;;;4999708;27;92533;-76
2022/01/07 04:23:38;;;;;;;50.97;45.97;;;17.20;55.20;;;;;;5003644;27;89159;-76
2022/01/07 04:26:03;;;;;;;51.35;46.25;;;17.10;55.20;;;;;;5010909;27;89771;-76
2022/01/07 04:28:29;;;;;;;50.58;45.60;;;17.20;55.20;;;;;;5006987;27;90404;-76
2022/01/07 04:30:55;;;;;;;51.15;46.08;;;17.10;55.10;;;;;;5004665;27;88659;-76
2022/01/07 04:33:25;;;;;;;51.15;46.15;;;17.10;55.20;;;;;;5002044;27;92090;-76
2022/01/07 04:35:51;;;;;;;51.10;46.10;;;17.10;55.30;;;;;;4997657;27;90098;-76
2022/01/07 04:38:17;;;;;;;50.75;45.78;;;17.20;55.20;;;;;;5006908;27;90465;-76
2022/01/07 04:40:43;;;;;;;50.75;45.75;;;17.20;55.20;;;;;;5002699;27;89444;-76
2022/01/07 04:43:08;;;;;;;51.15;46.05;;;17.10;55.20;;;;;;4995240;27;91056;-76
2022/01/07 04:45:35;;;;;;;50.88;45.88;;;17.20;55.30;;;;;;4997135;27;91221;-76
2022/01/07 04:48:01;;;;;;;51.38;46.05;;;17.10;55.20;;;;;;5000662;27;91168;-76
2022/01/07 04:50:27;;;;;;;50.80;45.80;;;17.20;55.10;;;;;;4999694;27;89364;-76
2022/01/07 04:52:53;;;;;;;50.70;45.70;;;17.10;55.10;;;;;;5003126;27;90347;-76
2022/01/07 04:55:25;;;;;;;51.38;46.35;;;17.10;55.00;;;;;;5002530;27;88565;-76
2022/01/07 04:57:51;;;;;;;51.17;46.08;;;17.20;55.10;;;;;;5004763;27;89408;-76
2022/01/07 05:00:19;;;;;;;51.08;46.05;;;17.10;55.30;;;;;;5007742;27;88847;-76
2022/01/07 05:02:46;;;;;;;51.20;46.13;;;17.10;54.90;;;;;;5003160;27;90106;-75
2022/01/07 05:05:12;;;;;;;51.22;46.13;;;17.10;55.10;;;;;;5004523;27;90810;-76
2022/01/07 05:07:37;;;;;;;51.13;46.08;;;17.10;55.00;;;;;;5007849;27;88982;-76
2022/01/07 05:10:08;;;;;;;51.10;46.03;;;17.10;55.30;;;;;;4996804;27;90800;-76
2022/01/07 05:12:34;;;;;;;51.05;45.95;;;17.10;55.30;;;;;;5003439;27;89466;-76
2022/01/07 05:15:00;;;;;;;50.78;45.78;;;17.20;55.80;;;;;;5003731;27;90232;-76
2022/01/07 05:17:26;;;;;;;51.38;46.22;;;17.30;55.90;;;;;;4979723;27;91420;-76
2022/01/07 05:19:52;;;;;;;50.90;45.80;;;17.50;55.60;;;;;;5006677;27;88695;-76
2022/01/07 05:22:17;;;;;;;50.92;45.92;;;17.60;56.10;;;;;;5008067;27;89989;-76
2022/01/07 05:24:43;;;;;;;50.83;45.85;;;17.70;55.20;;;;;;5010820;27;89146;-76
2022/01/07 05:27:09;;;;;;;50.80;45.80;;;17.80;55.50;;;;;;5014506;27;90584;-76
2022/01/07 05:29:35;;;;;;;50.90;45.83;;;17.90;55.60;;;;;;4981663;27;91798;-76
2022/01/07 05:32:08;;;;;;;50.47;45.58;;;18.00;55.60;;;;;;5009930;27;90493;-76
2022/01/07 05:34:34;;;;;;;50.72;45.72;;;18.10;55.00;;;;;;4999171;27;90626;-76
2022/01/07 05:37:00;;;;;;;50.65;45.65;;;18.30;55.20;;;;;;4982324;27;90054;-76
2022/01/07 05:39:26;;;;;;;51.05;45.85;;;18.40;54.80;;;;;;5002093;27;90530;-76
2022/01/07 05:41:52;;;;;;;50.47;45.58;;;18.50;54.40;;;;;;5005502;27;90755;-76
2022/01/07 05:44:18;;;;;;;50.63;45.55;;;18.50;54.60;;;;;;4993607;27;89772;-76
2022/01/07 05:46:44;;;;;;;50.83;45.72;;;18.60;54.60;;;;;;4989739;27;89754;-76
2022/01/07 05:49:09;;;;;;;50.95;45.85;;;18.80;54.10;;;;;;5014253;27;89777;-76
2022/01/07 05:51:35;;;;;;;50.60;45.60;;;19.00;54.00;;;;;;4983378;27;94850;-76
2022/01/07 05:54:01;;;;;;;50.63;45.65;;;19.10;52.90;;;;;;5003152;27;90854;-76
2022/01/07 05:56:26;;;;;;;51.15;46.05;;;19.20;52.70;;;;;;5008216;27;89711;-76
2022/01/07 05:58:52;;;;;;;50.88;45.80;;;19.30;52.50;;;;;;5003179;27;90246;-75
2022/01/07 06:01:18;;;;;;;51.22;46.17;;;19.40;51.90;;;;;;4999055;27;95185;-75
2022/01/07 06:03:44;;;;;;;51.08;46.08;;;19.40;51.80;;;;;;5000178;27;89503;-75
2022/01/07 06:06:09;;;;;;;50.65;45.60;;;19.40;51.60;;;;;;5007618;27;89270;-76
2022/01/07 06:08:35;;;;;;;50.65;45.65;;;19.40;51.60;;;;;;5009806;27;94623;-75
2022/01/07 06:11:01;;;;;;;50.60;45.70;;;19.40;51.70;;;;;;4998930;27;89013;-75
2022/01/07 06:13:26;;;;;;;51.05;46.03;;;19.40;51.60;;;;;;5003304;27;90199;-75
2022/01/07 06:15:52;;;;;;;50.72;45.78;;;19.40;51.40;;;;;;4977003;27;92268;-76
2022/01/07 06:18:18;;;;;;;50.75;45.75;;;19.40;51.40;;;;;;5001061;27;89405;-76
2022/01/07 06:20:44;;;;;;;51.03;46.03;;;19.30;51.30;;;;;;4975698;27;90619;-76
2022/01/07 06:23:09;;;;;;;51.65;46.13;;;19.30;51.40;;;;;;5009108;27;90488;-76
2022/01/07 06:25:35;;;;;;;50.55;45.65;;;19.30;51.50;;;;;;5003866;27;90452;-76
2022/01/07 06:28:01;;;;;;;50.97;45.97;;;19.30;51.30;;;;;;5003815;27;90302;-75
2022/01/07 06:30:27;;;;;;;50.88;45.83;;;19.20;51.50;;;;;;5002746;27;90578;-76
2022/01/07 06:32:53;;;;;;;50.60;45.60;;;19.20;51.50;;;;;;4982929;27;89908;-75
2022/01/07 06:35:19;;;;;;;51.40;46.22;;;19.20;51.30;;;;;;5004934;27;89622;-76
2022/01/07 06:37:44;;;;;;;51.03;45.83;;;19.20;51.50;;;;;;5001948;27;89345;-76
2022/01/07 06:40:11;;;;;;;50.92;45.83;;;19.20;51.10;;;;;;5005274;27;91330;-76
2022/01/07 06:42:37;;;;;;;51.53;46.25;;;19.30;51.80;;;;;;5005886;27;90702;-75
2022/01/07 06:45:05;;;;;;;50.88;45.88;;;19.20;51.10;;;;;;4998898;27;90000;-76
2022/01/07 06:47:31;;;;;;;50.97;45.78;;;19.20;51.20;;;;;;5008631;27;90386;-75
2022/01/07 06:49:57;;;;;;;51.38;46.28;;;19.20;51.10;;;;;;5006343;27;88921;-75
2022/01/07 06:52:23;;;;;;;51.05;45.85;;;19.10;51.30;;;;;;5000362;27;89327;-76
2022/01/07 06:54:49;;;;;;;51.05;45.85;;;19.10;51.30;;;;;;4987379;27;89378;-76
2022/01/07 06:57:14;;;;;;;50.85;45.85;;;19.10;50.90;;;;;;4982416;27;88479;-76
2022/01/07 06:59:40;;;;;;;51.15;46.05;;;19.00;51.10;;;;;;4998812;27;90876;-76
2022/01/07 07:02:06;;;;;;;51.17;45.97;;;19.00;51.50;;;;;;5004349;27;91615;-75
2022/01/07 07:04:32;;;;;;;50.80;45.88;;;19.00;51.20;;;;;;5006982;27;90547;-76
2022/01/07 07:06:58;;;;;;;50.90;45.85;;;18.90;51.40;;;;;;4987101;27;90736;-76
2022/01/07 07:09:24;;;;;;;51.20;45.90;;;18.80;51.50;;;;;;5008243;27;89966;-76
2022/01/07 07:11:50;;;;;;;50.72;45.63;;;18.80;51.50;;;;;;5001508;27;90332;-75
2022/01/07 07:14:16;;;;;;;50.75;45.75;;;18.80;51.50;;;;;;5002318;27;89620;-75
2022/01/07 07:16:43;;;;;;;51.03;45.83;;;18.70;51.50;;;;;;5005546;27;90403;-75
2022/01/07 07:19:09;;;;;;;50.85;45.75;;;18.70;51.70;;;;;;5007638;27;90313;-76
2022/01/07 07:21:35;;;;;;;57.38;45.88;;;18.70;51.60;;;;;;5005162;27;89162;-75
2022/01/07 07:24:02;;;;;;;55.25;45.85;;;18.60;51.80;;;;;;4986958;27;89553;-76
2022/01/07 07:26:27;;;;;;;52.15;45.67;;;18.60;52.00;;;;;;5012953;27;89486;-75
2022/01/07 07:28:53;;;;;;;51.50;45.92;;;18.60;52.30;;;;;;5005510;27;96999;-76
2022/01/07 07:31:20;;;;;;;50.80;45.70;;;18.60;52.30;;;;;;5004160;27;90787;-75
2022/01/07 07:36:31;;;;;;;50.75;45.65;;;18.50;52.40;;;;;;4993734;27;90451;-74
2022/01/07 07:39:05;;;;;;;50.58;45.50;;;18.50;52.40;;;;;;4968910;27;90183;-74
2022/01/07 07:41:32;;;;;;;51.42;45.95;;;18.50;52.70;;;;;;4982131;27;91313;-76
2022/01/07 07:43:58;;;;;;;51.22;45.92;;;18.50;52.70;;;;;;4993674;27;89910;-76
2022/01/07 07:46:24;;;;;;;54.45;46.30;;;18.40;52.80;;;;;;4991187;27;90024;-76
2022/01/07 07:48:51;;;;;;;50.95;45.78;;;18.40;52.80;;;;;;5007428;27;90361;-76
2022/01/07 07:51:18;;;;;;;51.45;46.15;;;18.40;52.80;;;;;;5002790;27;90086;-76
2022/01/07 07:53:45;;;;;;;52.65;45.80;;;18.40;52.80;;;;;;5010192;27;95241;-76
2022/01/07 07:56:13;;;;;;;51.15;45.75;;;18.40;52.70;;;;;;4998603;27;94714;-76
2022/01/07 07:58:39;;;;;;;51.50;46.08;;;18.30;52.90;;;;;;4997421;27;95635;-76
2022/01/07 08:01:05;;;;;;;51.55;46.10;;;18.30;53.00;;;;;;4999491;27;90858;-74
2022/01/07 08:03:31;;;;;;;53.28;46.15;;;18.20;53.30;;;;;;5003935;27;90604;-79
2022/01/07 08:05:56;;;;;;;51.20;45.88;;;18.20;54.00;;;;;;5000828;27;90959;-76
2022/01/07 08:08:22;;;;;;;52.33;46.15;;;18.30;54.30;;;;;;4976880;27;91537;-77
2022/01/07 08:10:51;;;;;;;54.33;46.13;;;18.20;54.40;;;;;;4996866;27;89398;-76
2022/01/07 08:13:28;;;;;;;55.10;46.30;;;18.20;54.70;;;;;;4996685;27;91864;-76
2022/01/07 08:15:59;;;;;;;50.83;45.80;;;18.20;54.70;;;;;;4973129;27;89880;-76
2022/01/07 08:18:29;;;;;;;51.53;46.13;;;18.20;54.90;;;;;;4999110;27;95603;-76
2022/01/07 08:20:56;;;;;;;51.35;45.88;;;18.30;54.90;;;;;;5000976;27;92714;-76
2022/01/07 08:23:22;;;;;;;51.40;45.83;;;18.20;54.90;;;;;;4976170;28;90617;-77
2022/01/07 08:25:48;;;;;;;51.40;45.95;;;18.30;55.30;;;;;;5001949;27;90110;-76
2022/01/07 08:28:15;;;;;;;51.75;46.28;;;18.40;55.30;;;;;;4982515;28;94361;-76
2022/01/07 08:36:21;;;;;;;52.10;46.65;;;18.70;55.20;;;;;;4996589;27;89989;-76
2022/01/07 08:38:49;;;;;;;53.88;46.75;;;18.80;54.90;;;;;;4989659;27;90182;-76
2022/01/07 08:41:15;;;;;;;52.67;46.88;;;18.90;54.70;;;;;;4991470;27;89700;-78
2022/01/07 08:43:41;;;;;;;52.47;46.88;;;19.00;54.60;;;;;;4967719;27;91155;-75
2022/01/07 08:46:07;;;;;;;52.55;46.97;;;19.10;54.40;;;;;;4989079;27;90865;-75
2022/01/07 08:48:34;;;;;;;52.90;47.15;;;19.10;54.50;;;;;;4995844;27;90128;-76
2022/01/07 08:51:00;;;;;;;54.15;47.20;;;19.20;54.30;;;;;;4996537;27;90509;-75
2022/01/07 08:53:25;;;;;;;56.25;47.10;;;19.20;54.30;;;;;;5004646;27;90297;-75
2022/01/07 08:55:51;;;;;;;62.25;47.65;;;19.30;54.10;;;;;;4982251;27;90879;-75
2022/01/07 08:58:17;;;;;;;66.45;47.75;;;19.30;54.20;;;;;;4986817;27;92412;-75
2022/01/07 09:00:43;;;;;;;59.45;48.33;;;19.40;54.40;;;;;;4991855;27;92135;-76
2022/01/07 09:03:08;;;;;;;64.90;48.50;;;19.40;54.40;;;;;;4995578;27;90591;-78
2022/01/07 09:05:34;;;;;;;59.55;48.10;;;19.50;54.20;;;;;;4980105;27;90566;-76
2022/01/07 09:08:00;;;;;;;59.53;47.75;;;19.40;54.00;;;;;;4993214;27;91065;-77
2022/01/07 09:10:25;;;;;;;60.90;47.55;;;19.50;53.90;;;;;;4989902;27;92249;-77
2022/01/07 09:12:51;;;;;;;58.95;47.65;;;19.50;53.70;;;;;;4983501;27;90795;-78
2022/01/07 09:15:17;;;;;;;57.10;47.40;;;19.50;53.30;;;;;;4987562;27;90261;-75
2022/01/07 09:17:43;;;;;;;60.90;47.65;;;19.50;53.00;;;;;;4999717;27;90663;-76
2022/01/07 09:20:10;;;;;;;59.70;47.67;;;19.60;52.90;;;;;;4995196;27;91105;-76
2022/01/07 09:22:36;;;;;;;62.90;47.53;;;19.50;52.60;;;;;;5008468;27;90722;-76
2022/01/07 09:25:04;;;;;;;54.67;47.65;;;19.60;52.60;;;;;;4997324;27;89757;-77
2022/01/07 09:27:30;;;;;;;56.22;47.65;;;19.50;52.60;;;;;;5005478;27;90279;-77
2022/01/07 09:29:56;;;;;;;57.85;47.42;;;19.60;52.60;;;;;;4967988;27;91225;-76
2022/01/07 09:32:21;;;;;;;62.70;48.05;;;19.50;52.50;;;;;;4990052;27;91360;-75
2022/01/07 09:34:47;;;;;;;57.47;47.25;;;19.50;52.50;;;;;;4979789;27;90005;-76
2022/01/07 09:37:12;;;;;;;52.92;46.92;;;19.50;52.40;;;;;;5006951;27;92146;-76
2022/01/07 09:39:38;;;;;;;61.03;47.15;;;19.40;52.50;;;;;;5002027;27;90858;-76
2022/01/07 09:42:05;;;;;;;60.00;47.42;;;19.30;52.80;;;;;;5000656;27;91067;-76
2022/01/07 09:44:31;;;;;;;53.60;47.05;;;19.30;52.90;;;;;;4994029;27;90087;-76
2022/01/07 09:46:57;;;;;;;52.67;46.97;;;19.30;52.90;;;;;;4983866;27;91558;-74
2022/01/07 09:49:23;;;;;;;54.47;47.40;;;19.20;52.80;;;;;;5010824;27;90144;-76
2022/01/07 09:51:49;;;;;;;53.40;47.55;;;19.20;52.90;;;;;;4999274;27;91685;-76
2022/01/07 09:54:15;;;;;;;56.08;47.60;;;19.20;53.00;;;;;;4996577;27;90098;-77
2022/01/07 09:56:41;;;;;;;55.38;47.10;;;19.20;53.00;;;;;;5004275;27;90264;-75
2022/01/07 09:59:07;;;;;;;54.13;47.05;;;19.10;52.90;;;;;;4991526;27;90725;-76
2022/01/07 10:02:02;;;;;;;52.55;46.85;;;19.10;52.70;;;;;;4987433;27;94194;-76
2022/01/07 10:04:29;;;;;;;58.28;46.95;;;19.00;52.70;;;;;;4998672;27;94770;-76
2022/01/07 10:07:21;;;;;;;54.50;47.13;;;19.00;52.80;;;;;;4993064;27;90514;-76
2022/01/07 10:09:57;;;;;;;;;;;19.00;52.70;;;;;;5003411;27;90763;-72
2022/01/07 10:12:22;;;;;;;52.45;46.75;;;18.90;52.50;;;;;;4988424;27;90605;-75
2022/01/07 10:15:08;;;;;;;52.15;46.63;;;18.90;52.40;;;;;;5011599;27;89311;-75
2022/01/07 10:17:33;;;;;;;56.00;47.00;;;18.90;52.50;;;;;;5010948;27;89767;-76
2022/01/07 10:20:00;;;;;;;53.40;46.75;;;18.90;52.20;;;;;;5010974;27;90255;-75
2022/01/07 10:22:26;;;;;;;52.13;46.60;;;18.90;52.00;;;;;;5014912;27;90333;-76
2022/01/07 10:24:59;;;;;;;55.78;47.30;;;18.90;52.00;;;;;;5014118;27;89355;-75
2022/01/07 10:27:36;;;;;;;53.83;46.90;;;19.00;51.90;;;;;;4994103;27;91882;-76
2022/01/07 10:30:13;;;;;;;55.10;46.58;;;19.00;51.70;;;;;;5002912;27;90300;-75
2022/01/07 10:32:39;;;;;;;51.78;46.40;;;19.10;51.40;;;;;;5019335;27;91224;-75
2022/01/07 10:35:14;;;;;;;51.97;46.42;;;19.10;51.20;;;;;;5013865;27;94215;-75
2022/01/07 10:37:58;;;;;;;54.13;46.38;;;19.10;51.00;;;;;;5009585;27;90659;-75
2022/01/07 10:40:34;;;;;;;52.40;46.53;;;19.10;51.00;;;;;;5008489;27;89241;-75
2022/01/07 10:43:12;;;;;;;52.20;46.47;;;19.10;50.80;;;;;;5013346;27;90577;-76
2022/01/07 10:45:39;;;;;;;51.67;46.42;;;19.10;50.80;;;;;;5010363;27;89494;-75
2022/01/07 10:48:06;;;;;;;52.50;46.55;;;19.10;50.70;;;;;;5006991;27;90443;-76
2022/01/07 10:50:40;;;;;;;51.75;46.15;;;19.10;50.60;;;;;;5010340;27;90625;-76
2022/01/07 10:53:21;;;;;;;51.95;46.65;;;19.10;50.70;;;;;;5018468;27;89420;-76
2022/01/07 10:56:03;;;;;;;51.67;46.33;;;19.10;50.50;;;;;;5000111;27;89772;-76
2022/01/07 10:58:30;;;;;;;51.90;46.42;;;19.10;50.50;;;;;;5016474;27;89869;-76
2022/01/07 11:00:56;;;;;;;51.75;46.28;;;19.10;50.40;;;;;;5014838;27;93311;-76
2022/01/07 11:03:22;;;;;;;51.00;45.90;;;19.10;50.40;;;;;;5011126;27;90172;-76
2022/01/07 11:05:48;;;;;;;51.15;45.85;;;19.10;50.00;;;;;;5019307;27;89831;-76
2022/01/07 11:08:15;;;;;;;51.28;45.88;;;19.00;49.90;;;;;;4997264;27;95098;-76
2022/01/07 11:10:42;;;;;;;51.85;46.25;;;19.00;49.80;;;;;;5009687;27;91311;-76
2022/01/07 11:13:10;;;;;;;51.95;46.38;;;19.00;50.00;;;;;;5002821;27;91210;-75
2022/01/07 11:15:36;;;;;;;51.97;46.08;;;19.00;50.10;;;;;;5014492;27;89203;-76
2022/01/07 11:18:02;;;;;;;53.63;46.47;;;18.90;50.00;;;;;;5004923;27;90266;-76
2022/01/07 11:20:28;;;;;;;56.95;46.97;;;18.90;50.10;;;;;;5006703;27;89999;-78
2022/01/07 11:22:55;;;;;;;56.50;46.60;;;18.80;50.90;;;;;;5012154;27;91503;-77
2022/01/07 11:25:31;;;;;;;58.78;46.63;;;18.80;52.00;;;;;;5016647;27;89580;-77
2022/01/07 11:27:58;;;;;;;53.05;46.75;;;18.80;53.60;;;;;;4987771;27;90164;-76
2022/01/07 11:30:28;;;;;;;53.20;46.47;;;18.80;55.40;;;;;;4989059;27;92685;-75
2022/01/07 11:32:55;;;;;;;51.67;46.17;;;18.70;55.60;;;;;;4979988;27;89905;-77
2022/01/07 11:35:21;;;;;;;52.55;46.85;;;18.70;56.20;;;;;;4999760;27;93468;-75
2022/01/07 11:37:46;;;;;;;54.00;46.53;;;18.70;56.90;;;;;;4980749;27;91203;-77
2022/01/07 11:43:18;;;;;;;52.10;46.50;;;18.80;57.10;;;;;;5012287;27;89831;-77
2022/01/07 11:45:45;;;;;;;52.00;46.50;;;18.90;57.10;;;;;;5002835;27;90539;-74
2022/01/07 11:48:11;;;;;;;51.85;46.28;;;18.90;57.10;;;;;;4998924;27;90089;-75
2022/01/07 11:50:55;;;;;;;52.00;46.38;;;18.90;56.90;;;;;;4988866;27;89799;-79
2022/01/07 11:53:28;;;;;;;51.47;46.00;;;18.90;56.70;;;;;;4988352;27;91097;-78
2022/01/07 11:56:01;;;;;;;51.85;46.30;;;19.00;56.30;;;;;;5010153;27;88859;-77
2022/01/07 11:58:44;;;;;;;51.65;46.15;;;19.10;56.30;;;;;;4978625;27;91167;-79
2022/01/07 12:01:28;;;;;;;52.30;46.55;;;19.10;56.40;;;;;;4999733;27;90870;-81
2022/01/07 12:03:59;;;;;;;51.67;46.25;;;19.20;55.70;;;;;;5007680;27;95085;-80
2022/01/07 12:06:28;;;;;;;;;;;19.20;55.50;;;;;;5005786;27;90666;-80
2022/01/07 12:08:57;;;;;;;51.28;45.83;;;19.20;55.30;;;;;;5000059;27;90547;-80
2022/01/07 12:11:24;;;;;;;51.35;45.95;;;19.30;55.10;;;;;;4999741;27;89712;-80
2022/01/07 12:13:49;;;;;;;51.88;46.38;;;19.30;55.00;;;;;;4993779;27;91843;-79
2022/01/07 12:16:23;;;;;;;51.53;46.22;;;19.30;54.90;;;;;;5004701;27;91532;-79
2022/01/07 12:18:49;;;;;;;51.28;45.95;;;19.30;54.90;;;;;;5001866;27;90649;-78
2022/01/07 12:21:15;;;;;;;51.30;45.97;;;19.20;54.60;;;;;;4976658;28;91746;-76
2022/01/07 12:23:42;;;;;;;51.45;45.95;;;19.20;54.70;;;;;;5008421;27;91251;-77
2022/01/07 12:26:08;;;;;;;51.33;46.03;;;19.20;54.50;;;;;;5009686;27;90862;-78
2022/01/07 12:28:40;;;;;;;51.50;46.03;;;19.20;54.50;;;;;;5011930;27;91243;-77
2022/01/07 12:31:08;;;;;;;51.25;45.85;;;19.10;54.60;;;;;;4999078;27;94691;-77
2022/01/07 12:33:34;;;;;;;51.25;45.95;;;19.10;54.70;;;;;;4974089;27;95070;-78
2022/01/07 12:35:59;;;;;;;51.17;45.88;;;19.00;54.80;;;;;;4999378;27;90018;-78
2022/01/07 12:38:25;;;;;;;51.13;45.90;;;19.00;55.00;;;;;;5002236;27;90805;-79